Time;durP1;ratioP1;P1;durP2;ratioP2;P2;SDS_P1;SDS_P2;PMS_P1;PMS_P2;Temp;Humidity;BMP_temperature;BMP_pressure;BME280_temperature;BME280_humidity;BME280_pressure;Samples;Min_cycle;Max_cycle;Signal;HPM_P1;HPM_P2
2023/04/09 00:01:35;;;;;;;10.15;5.53;;;8.30;99.90;;;;;;5111418;28;19924;-56
2023/04/09 00:04:03;;;;;;;10.82;6.07;;;8.20;99.90;;;;;;5100992;28;20036;-55
2023/04/09 00:06:31;;;;;;;10.65;5.47;;;8.20;99.90;;;;;;5111587;28;20039;-55
2023/04/09 00:08:58;;;;;;;12.48;6.35;;;8.20;99.90;;;;;;5111123;28;20051;-54
2023/04/09 00:11:26;;;;;;;12.65;5.45;;;8.20;99.90;;;;;;5111729;28;20044;-56
2023/04/09 00:13:54;;;;;;;16.77;6.88;;;8.20;99.90;;;;;;5111187;28;20047;-56
2023/04/09 00:16:21;;;;;;;11.82;6.28;;;8.10;99.90;;;;;;5082546;28;20044;-55
2023/04/09 00:18:49;;;;;;;13.13;5.85;;;8.20;99.90;;;;;;5110177;28;20516;-55
2023/04/09 00:21:17;;;;;;;13.20;6.72;;;8.10;99.90;;;;;;5111833;28;20042;-56
2023/04/09 00:23:45;;;;;;;14.07;5.60;;;8.10;99.90;;;;;;5111169;28;20479;-56
2023/04/09 00:26:12;;;;;;;10.40;5.63;;;8.10;99.90;;;;;;5109876;28;20044;-55
2023/04/09 00:28:41;;;;;;;12.18;6.35;;;8.10;99.90;;;;;;5111079;28;20039;-55
2023/04/09 00:31:09;;;;;;;11.80;6.22;;;8.00;99.90;;;;;;5110671;28;20050;-56
2023/04/09 00:33:37;;;;;;;12.10;5.60;;;8.00;99.90;;;;;;5111117;28;20048;-57
2023/04/09 00:36:04;;;;;;;14.27;6.32;;;8.00;99.90;;;;;;5109943;28;20514;-56
2023/04/09 00:38:32;;;;;;;11.27;5.55;;;8.00;99.90;;;;;;5106060;28;20048;-56
2023/04/09 00:41:00;;;;;;;12.98;6.53;;;7.90;99.90;;;;;;5090462;28;20059;-56
2023/04/09 00:43:28;;;;;;;10.68;6.57;;;7.90;99.90;;;;;;5075798;28;20483;-56
2023/04/09 00:45:57;;;;;;;12.52;6.22;;;7.90;99.90;;;;;;5099119;28;20039;-57
2023/04/09 00:48:24;;;;;;;13.93;6.40;;;7.90;99.90;;;;;;5109248;28;20062;-55
2023/04/09 00:50:52;;;;;;;13.45;7.05;;;7.90;99.90;;;;;;5092056;28;20058;-55
2023/04/09 00:53:20;;;;;;;12.70;6.45;;;7.90;99.90;;;;;;5092809;28;20047;-54
2023/04/09 00:55:48;;;;;;;13.27;6.53;;;7.80;99.90;;;;;;5099695;28;20060;-54
2023/04/09 00:58:16;;;;;;;14.05;6.57;;;7.80;99.90;;;;;;5077712;28;20632;-55
2023/04/09 01:00:43;;;;;;;11.88;6.63;;;7.80;99.90;;;;;;5094757;28;20044;-55
2023/04/09 01:03:11;;;;;;;13.82;6.78;;;7.80;99.90;;;;;;5106792;28;20048;-56
2023/04/09 01:06:03;;;;;;;11.93;6.50;;;7.80;99.90;;;;;;5107124;28;20046;-55
2023/04/09 01:08:54;;;;;;;11.88;6.03;;;7.80;99.90;;;;;;5109906;28;20227;-55
2023/04/09 01:11:39;;;;;;;14.73;7.47;;;7.80;99.90;;;;;;5110411;28;20055;-55
2023/04/09 01:14:40;;;;;;;12.63;7.72;;;7.70;99.90;;;;;;5110019;28;20612;-56
2023/04/09 01:17:25;;;;;;;16.35;7.10;;;7.70;99.90;;;;;;5082096;28;20044;-55
2023/04/09 01:20:10;;;;;;;13.10;6.82;;;7.70;99.90;;;;;;5068366;28;20039;-56
2023/04/09 01:22:47;;;;;;;12.52;6.88;;;7.70;99.90;;;;;;5071633;28;20040;-56
2023/04/09 01:25:47;;;;;;;13.13;7.32;;;7.60;99.90;;;;;;5088459;28;20047;-56
2023/04/09 01:28:19;;;;;;;14.75;6.90;;;7.60;99.90;;;;;;5086685;28;20054;-57
2023/04/09 01:30:52;;;;;;;12.40;6.50;;;7.60;99.90;;;;;;5091415;28;20055;-56
2023/04/09 01:33:21;;;;;;;12.27;7.10;;;7.50;99.90;;;;;;5074982;28;20479;-55
2023/04/09 01:35:50;;;;;;;11.90;7.03;;;7.50;99.90;;;;;;5090658;28;20063;-55
2023/04/09 01:38:20;;;;;;;12.48;7.03;;;7.50;99.90;;;;;;5109478;28;20390;-56
2023/04/09 01:40:49;;;;;;;20.25;7.82;;;7.40;99.90;;;;;;5093798;28;20055;-57
2023/04/09 01:43:18;;;;;;;14.07;7.57;;;7.40;99.90;;;;;;5074515;28;20488;-55
2023/04/09 01:45:47;;;;;;;17.75;7.28;;;7.40;99.90;;;;;;5096263;28;20044;-55
2023/04/09 01:48:16;;;;;;;15.33;6.77;;;7.40;99.90;;;;;;5111208;28;20047;-56
2023/04/09 01:50:44;;;;;;;17.00;8.00;;;7.30;99.90;;;;;;5113464;28;20292;-56
2023/04/09 01:53:12;;;;;;;15.95;7.55;;;7.30;99.90;;;;;;5113083;28;20048;-55
2023/04/09 01:55:39;;;;;;;16.55;8.50;;;7.20;99.90;;;;;;5112752;28;20518;-56
2023/04/09 01:58:07;;;;;;;14.52;7.38;;;7.20;99.90;;;;;;5105793;28;20036;-55
2023/04/09 02:00:38;;;;;;;18.33;7.95;;;7.20;99.90;;;;;;5074809;28;20070;-55
2023/04/09 02:03:16;;;;;;;16.35;8.00;;;7.20;99.90;;;;;;5074685;28;20044;-55
2023/04/09 02:05:55;;;;;;;15.95;7.80;;;7.20;99.90;;;;;;5074312;28;20044;-56
2023/04/09 02:08:24;;;;;;;15.60;8.13;;;7.20;99.90;;;;;;5091922;28;20055;-55
2023/04/09 02:10:57;;;;;;;15.30;8.05;;;7.10;99.90;;;;;;5112779;28;20055;-55
2023/04/09 02:13:26;;;;;;;17.95;9.25;;;7.10;99.90;;;;;;5111287;28;20055;-56
2023/04/09 02:15:57;;;;;;;17.25;8.55;;;7.10;99.90;;;;;;5088965;28;20054;-57
2023/04/09 02:18:27;;;;;;;18.20;8.20;;;7.00;99.90;;;;;;5098843;28;20048;-57
2023/04/09 02:20:55;;;;;;;;;;;7.00;99.90;;;;;;5113210;28;20051;-56
2023/04/09 02:23:26;;;;;;;16.25;8.07;;;7.00;99.90;;;;;;5094305;28;19920;-58
2023/04/09 02:25:54;;;;;;;18.85;8.45;;;7.00;99.90;;;;;;5094260;28;20416;-56
2023/04/09 02:28:21;;;;;;;19.50;8.73;;;7.00;99.90;;;;;;5112409;28;20047;-56
2023/04/09 02:30:51;;;;;;;16.15;7.95;;;7.00;99.90;;;;;;5112795;28;20047;-56
2023/04/09 02:33:18;;;;;;;16.75;8.18;;;7.00;99.90;;;;;;5094391;28;20121;-56
2023/04/09 02:35:46;;;;;;;20.80;8.77;;;7.00;99.90;;;;;;5112304;28;20048;-56
2023/04/09 02:38:14;;;;;;;17.45;8.18;;;7.00;99.90;;;;;;5112134;28;20051;-56
2023/04/09 02:40:42;;;;;;;17.63;8.38;;;7.00;99.90;;;;;;5111255;28;20040;-57
2023/04/09 02:43:10;;;;;;;16.00;9.00;;;7.00;99.90;;;;;;5112146;28;20522;-54
2023/04/09 02:45:37;;;;;;;16.23;8.57;;;7.00;99.90;;;;;;5111995;28;20047;-55
2023/04/09 02:48:05;;;;;;;15.82;8.63;;;6.90;99.90;;;;;;5093686;28;20395;-55
2023/04/09 02:50:35;;;;;;;18.48;8.25;;;7.00;99.90;;;;;;5094043;28;20695;-55
2023/04/09 02:53:02;;;;;;;20.20;9.02;;;7.00;99.90;;;;;;5087837;28;20063;-54
2023/04/09 02:55:30;;;;;;;15.43;8.15;;;7.00;99.90;;;;;;5090629;28;20044;-54
2023/04/09 02:57:58;;;;;;;16.83;8.60;;;7.00;99.90;;;;;;5090465;28;20043;-54
2023/04/09 03:00:25;;;;;;;19.45;9.00;;;6.90;99.90;;;;;;5093836;28;20039;-55
2023/04/09 03:02:54;;;;;;;18.75;9.27;;;6.90;99.90;;;;;;5093806;28;20047;-55
2023/04/09 03:05:22;;;;;;;15.00;8.55;;;6.90;99.90;;;;;;5093937;28;20040;-56
2023/04/09 03:07:50;;;;;;;17.02;8.75;;;6.90;99.90;;;;;;5111998;28;20395;-55
2023/04/09 03:10:18;;;;;;;22.27;9.82;;;6.80;99.90;;;;;;5111915;28;20482;-55
2023/04/09 03:12:46;;;;;;;18.05;8.85;;;6.80;99.90;;;;;;5093810;28;20061;-55
2023/04/09 03:15:14;;;;;;;19.50;10.40;;;6.80;99.90;;;;;;5111942;28;20048;-55
2023/04/09 03:17:41;;;;;;;22.02;9.93;;;6.70;99.90;;;;;;5094025;28;20546;-56
2023/04/09 03:20:12;;;;;;;20.55;10.15;;;6.70;99.90;;;;;;5111812;28;20047;-55
2023/04/09 03:22:41;;;;;;;16.67;9.20;;;6.60;99.90;;;;;;5110512;28;20047;-55
2023/04/09 03:25:27;;;;;;;17.58;9.15;;;6.50;99.90;;;;;;5093487;28;20047;-55
2023/04/09 03:27:55;;;;;;;17.98;9.70;;;6.60;99.90;;;;;;5093529;28;20044;-57
2023/04/09 03:30:37;;;;;;;21.02;9.65;;;6.50;99.90;;;;;;5093552;28;20052;-55
2023/04/09 03:33:06;;;;;;;19.70;9.85;;;6.50;99.90;;;;;;5093746;28;20483;-55
2023/04/09 03:35:43;;;;;;;20.75;10.90;;;6.40;99.90;;;;;;5093463;28;20063;-55
2023/04/09 03:38:12;;;;;;;21.95;10.18;;;6.40;99.90;;;;;;5093532;28;20039;-56
2023/04/09 03:40:41;;;;;;;24.23;12.32;;;6.40;99.90;;;;;;5093745;28;20666;-55
2023/04/09 03:43:09;;;;;;;22.90;10.35;;;6.30;99.90;;;;;;5093503;28;20039;-55
2023/04/09 03:45:38;;;;;;;18.65;10.05;;;6.20;99.90;;;;;;5076744;28;20044;-55
2023/04/09 03:48:27;;;;;;;22.67;10.23;;;6.20;99.90;;;;;;5073369;28;20044;-55
2023/04/09 03:50:57;;;;;;;20.08;10.23;;;6.20;99.90;;;;;;5073257;28;20040;-56
2023/04/09 03:53:33;;;;;;;22.80;9.63;;;6.10;99.90;;;;;;5072577;28;20055;-56
2023/04/09 03:56:04;;;;;;;21.27;10.30;;;6.10;99.90;;;;;;5089962;28;20055;-55
2023/04/09 03:58:34;;;;;;;24.40;10.55;;;6.00;99.90;;;;;;5088451;28;20047;-55
2023/04/09 04:01:02;;;;;;;24.38;10.55;;;6.00;99.90;;;;;;5075845;28;20036;-55
2023/04/09 04:03:49;;;;;;;19.63;10.23;;;5.90;99.90;;;;;;5080561;28;20039;-55
2023/04/09 04:06:24;;;;;;;23.25;11.02;;;5.80;99.90;;;;;;5096906;28;20537;-55
2023/04/09 04:09:18;;;;;;;22.92;11.07;;;5.80;99.90;;;;;;5093425;28;20503;-55
2023/04/09 04:11:52;;;;;;;21.90;9.77;;;5.70;99.90;;;;;;5114044;28;20047;-55
2023/04/09 04:14:22;;;;;;;24.20;10.40;;;5.70;99.90;;;;;;5096572;28;20043;-55
2023/04/09 04:16:56;;;;;;;27.70;11.00;;;5.60;99.90;;;;;;5106650;28;20040;-56
2023/04/09 04:19:29;;;;;;;22.45;10.18;;;5.60;99.90;;;;;;5094603;28;20044;-57
2023/04/09 04:21:58;;;;;;;28.17;12.07;;;5.50;99.90;;;;;;5076585;28;20051;-55
2023/04/09 04:24:26;;;;;;;22.50;10.52;;;5.50;99.90;;;;;;5094438;28;20051;-56
2023/04/09 04:26:54;;;;;;;29.85;11.98;;;5.40;99.90;;;;;;5079357;28;20036;-55
2023/04/09 04:29:27;;;;;;;21.95;10.65;;;5.40;99.90;;;;;;5086000;28;20040;-56
2023/04/09 04:31:58;;;;;;;21.75;10.98;;;5.30;99.90;;;;;;5076356;28;20055;-56
2023/04/09 04:34:31;;;;;;;21.45;10.65;;;5.30;99.90;;;;;;5094215;28;20055;-56
2023/04/09 04:37:05;;;;;;;25.77;12.15;;;5.30;99.90;;;;;;5083031;28;20483;-56
2023/04/09 04:39:33;;;;;;;26.65;11.38;;;5.30;99.90;;;;;;5083427;28;20044;-57
2023/04/09 04:42:09;;;;;;;24.42;12.32;;;5.30;99.90;;;;;;5091847;28;20505;-56
2023/04/09 04:44:37;;;;;;;26.90;12.85;;;5.30;99.90;;;;;;5096220;28;20051;-56
2023/04/09 04:47:21;;;;;;;27.17;12.60;;;5.40;99.90;;;;;;5090849;28;20051;-58
2023/04/09 04:49:48;;;;;;;23.67;12.70;;;5.40;99.90;;;;;;5092610;28;20048;-58
2023/04/09 04:52:16;;;;;;;28.65;12.90;;;5.40;99.90;;;;;;5094742;28;20110;-59
2023/04/09 04:54:49;;;;;;;25.05;11.48;;;5.40;99.90;;;;;;5082930;28;20047;-58
2023/04/09 04:57:24;;;;;;;27.55;12.63;;;5.40;99.90;;;;;;5089028;28;20048;-58
2023/04/09 04:59:53;;;;;;;27.95;12.88;;;5.40;99.90;;;;;;5087558;28;20051;-58
2023/04/09 05:02:23;;;;;;;31.70;13.70;;;5.40;99.90;;;;;;5085500;28;20388;-57
2023/04/09 05:05:16;;;;;;;32.03;12.88;;;5.40;99.90;;;;;;5107319;28;20051;-59
2023/04/09 05:07:50;;;;;;;37.30;14.13;;;5.40;99.90;;;;;;5088645;28;20031;-57
2023/04/09 05:10:18;;;;;;;32.80;13.82;;;5.40;99.90;;;;;;5080620;28;20413;-58
2023/04/09 05:12:59;;;;;;;27.05;12.40;;;5.40;99.90;;;;;;5079256;28;20044;-57
2023/04/09 05:15:56;;;;;;;30.90;13.95;;;5.40;99.90;;;;;;5094131;28;20052;-57
2023/04/09 05:18:23;;;;;;;28.27;13.27;;;5.40;99.90;;;;;;5085465;28;20047;-56
2023/04/09 05:20:51;;;;;;;30.83;14.50;;;5.40;99.90;;;;;;5092245;28;20074;-56
2023/04/09 05:23:19;;;;;;;26.20;13.32;;;5.40;99.90;;;;;;5110307;28;20411;-57
2023/04/09 05:25:49;;;;;;;;;;;5.30;99.90;;;;;;5087952;28;20040;-57
2023/04/09 05:28:33;;;;;;;32.17;14.05;;;5.30;99.90;;;;;;5082053;28;20346;-57
2023/04/09 05:31:11;;;;;;;30.95;13.35;;;5.30;99.90;;;;;;5088836;28;20047;-56
2023/04/09 05:33:45;;;;;;;41.03;15.77;;;5.30;99.90;;;;;;5084482;28;20044;-57
2023/04/09 05:36:19;;;;;;;31.60;14.63;;;5.20;99.90;;;;;;5068378;28;20070;-57
2023/04/09 05:38:47;;;;;;;34.08;15.13;;;5.20;99.90;;;;;;5101733;28;20054;-57
2023/04/09 05:41:14;;;;;;;41.75;16.75;;;5.20;99.90;;;;;;5106914;28;20044;-56
2023/04/09 05:44:01;;;;;;;36.78;17.20;;;5.20;99.90;;;;;;5101035;28;20126;-56
2023/04/09 05:46:30;;;;;;;45.85;17.63;;;5.20;99.90;;;;;;5085942;28;20052;-57
2023/04/09 05:48:59;;;;;;;46.70;18.50;;;5.20;99.90;;;;;;5076306;28;20051;-57
2023/04/09 05:51:28;;;;;;;42.80;17.07;;;5.20;99.90;;;;;;5086815;28;20514;-57
2023/04/09 05:53:58;;;;;;;45.95;18.67;;;5.20;99.90;;;;;;5102000;28;20307;-57
2023/04/09 05:56:33;;;;;;;45.88;18.75;;;5.20;99.90;;;;;;5087192;28;20399;-56
2023/04/09 05:59:01;;;;;;;47.72;19.52;;;5.20;99.90;;;;;;5088195;28;20043;-57
2023/04/09 06:01:29;;;;;;;47.95;19.38;;;5.20;99.90;;;;;;5106757;28;20196;-56
2023/04/09 06:03:56;;;;;;;45.75;18.63;;;5.30;99.90;;;;;;5087069;28;20051;-56
2023/04/09 06:06:28;;;;;;;46.15;19.13;;;;;;;;;;5071158;28;20048;-56
2023/04/09 06:08:56;;;;;;;40.08;17.48;;;5.30;99.90;;;;;;5071097;28;20361;-56
2023/04/09 06:11:25;;;;;;;44.38;19.10;;;5.30;99.90;;;;;;5071043;28;20044;-57
2023/04/09 06:13:53;;;;;;;48.97;19.05;;;5.30;99.90;;;;;;5105404;28;20039;-56
2023/04/09 06:16:21;;;;;;;49.17;20.27;;;5.30;99.90;;;;;;5109187;28;20043;-56
2023/04/09 06:18:49;;;;;;;44.50;18.70;;;5.40;99.90;;;;;;5090375;28;20035;-56
2023/04/09 06:21:17;;;;;;;41.55;18.05;;;5.30;99.90;;;;;;5108130;28;20659;-56
2023/04/09 06:23:45;;;;;;;44.20;18.38;;;5.40;99.90;;;;;;5091360;28;20051;-55
2023/04/09 06:26:13;;;;;;;46.33;17.77;;;5.30;99.90;;;;;;5085797;28;20428;-57
2023/04/09 06:28:43;;;;;;;46.88;18.58;;;5.40;99.90;;;;;;5081865;28;20058;-56
2023/04/09 06:31:11;;;;;;;40.42;17.92;;;5.30;99.90;;;;;;5103635;28;20051;-56
2023/04/09 06:33:41;;;;;;;42.50;17.58;;;5.40;99.90;;;;;;5103001;28;20491;-56
2023/04/09 06:36:10;;;;;;;45.72;18.15;;;5.30;99.90;;;;;;5108015;28;20063;-56
2023/04/09 06:38:37;;;;;;;42.38;17.40;;;5.30;99.90;;;;;;5080667;28;20405;-57
2023/04/09 06:41:07;;;;;;;44.28;18.73;;;5.30;99.90;;;;;;5088705;28;20047;-56
2023/04/09 06:43:36;;;;;;;36.75;16.60;;;5.30;99.90;;;;;;5084001;28;20497;-57
2023/04/09 06:46:03;;;;;;;48.78;18.70;;;5.30;99.90;;;;;;5108671;28;20849;-55
2023/04/09 06:48:31;;;;;;;43.30;18.30;;;5.30;99.90;;;;;;5108296;28;20055;-56
2023/04/09 06:50:59;;;;;;;45.83;19.88;;;5.30;99.90;;;;;;5107794;28;20047;-56
2023/04/09 06:53:27;;;;;;;51.08;19.00;;;5.40;99.90;;;;;;5104886;28;20055;-57
2023/04/09 06:55:55;;;;;;;53.95;20.40;;;5.50;99.90;;;;;;5105445;28;20059;-55
2023/04/09 06:58:23;;;;;;;46.08;19.35;;;5.50;99.90;;;;;;5104148;28;20054;-56
2023/04/09 07:00:51;;;;;;;40.38;18.45;;;5.60;99.90;;;;;;5108071;28;20438;-57
2023/04/09 07:03:19;;;;;;;44.75;19.10;;;5.60;99.90;;;;;;5104729;28;20402;-59
2023/04/09 07:05:47;;;;;;;46.30;18.27;;;5.70;99.90;;;;;;5099841;28;20040;-56
2023/04/09 07:08:15;;;;;;;36.65;16.83;;;5.80;99.90;;;;;;5098802;28;20054;-57
2023/04/09 07:10:43;;;;;;;45.47;18.40;;;5.80;99.90;;;;;;5108497;28;20434;-57
2023/04/09 07:13:11;;;;;;;41.17;17.13;;;5.80;99.90;;;;;;5107983;28;20038;-56
2023/04/09 07:15:39;;;;;;;46.75;19.33;;;5.90;99.90;;;;;;5096087;28;20051;-57
2023/04/09 07:18:10;;;;;;;44.88;18.42;;;5.90;99.90;;;;;;5079932;28;20039;-57
2023/04/09 07:20:38;;;;;;;47.10;18.55;;;6.00;99.90;;;;;;5108139;28;20047;-56
2023/04/09 07:23:05;;;;;;;47.08;20.00;;;6.00;99.90;;;;;;5108386;28;20043;-56
2023/04/09 07:25:33;;;;;;;39.10;15.77;;;6.10;99.90;;;;;;5108315;28;20042;-55
2023/04/09 07:28:01;;;;;;;44.70;17.73;;;6.10;99.90;;;;;;5108766;28;20423;-57
2023/04/09 07:30:28;;;;;;;44.13;17.30;;;6.10;99.90;;;;;;5107742;28;20059;-56
2023/04/09 07:32:56;;;;;;;35.13;14.80;;;6.20;99.90;;;;;;5106449;28;20043;-56
2023/04/09 07:35:24;;;;;;;46.10;17.70;;;6.30;99.90;;;;;;5106246;28;20048;-56
2023/04/09 07:37:51;;;;;;;38.75;15.90;;;6.40;99.90;;;;;;5111289;27;20048;-56
2023/04/09 07:40:19;;;;;;;36.67;16.25;;;6.50;99.90;;;;;;5109338;28;20054;-56
2023/04/09 07:42:47;;;;;;;31.55;14.45;;;6.50;99.90;;;;;;5112376;28;20055;-56
2023/04/09 07:45:15;;;;;;;35.28;14.85;;;6.60;99.90;;;;;;5112343;28;20052;-56
2023/04/09 07:47:44;;;;;;;30.58;14.98;;;6.70;99.90;;;;;;5111826;28;20054;-56
2023/04/09 07:50:11;;;;;;;31.20;14.52;;;6.70;99.90;;;;;;5106003;28;20493;-57
2023/04/09 07:52:40;;;;;;;39.20;14.82;;;;;;;;;;5099685;28;20051;-55
2023/04/09 07:55:08;;;;;;;30.23;13.70;;;6.80;99.90;;;;;;5110315;28;20044;-55
2023/04/09 07:57:36;;;;;;;36.60;13.93;;;6.80;99.90;;;;;;5111861;28;20517;-55
2023/04/09 08:00:04;;;;;;;35.75;16.55;;;6.90;99.90;;;;;;5112126;28;20066;-56
2023/04/09 08:02:39;;;;;;;32.17;15.00;;;6.90;99.90;;;;;;5112009;28;20409;-56
2023/04/09 08:05:16;;;;;;;37.10;15.05;;;6.90;99.90;;;;;;5110445;28;20390;-56
2023/04/09 08:07:44;;;;;;;38.03;16.10;;;7.10;99.90;;;;;;5111646;28;20055;-55
2023/04/09 08:10:13;;;;;;;34.25;15.70;;;7.20;99.90;;;;;;5099206;28;20047;-54
2023/04/09 08:12:41;;;;;;;35.17;16.23;;;7.30;99.90;;;;;;5107939;28;20052;-56
2023/04/09 08:15:09;;;;;;;39.05;16.65;;;7.30;99.90;;;;;;5093955;28;20036;-55
2023/04/09 08:17:37;;;;;;;42.08;17.50;;;7.30;99.90;;;;;;5110531;28;20055;-57
2023/04/09 08:20:05;;;;;;;40.92;17.73;;;7.40;99.90;;;;;;5108129;28;20039;-58
2023/04/09 08:22:35;;;;;;;43.25;18.92;;;7.40;99.90;;;;;;5096443;28;20078;-56
2023/04/09 08:25:03;;;;;;;45.47;18.70;;;7.30;99.90;;;;;;5111585;28;20510;-57
2023/04/09 08:27:32;;;;;;;43.80;16.75;;;7.40;99.90;;;;;;5111120;28;20054;-57
2023/04/09 08:29:59;;;;;;;48.30;18.42;;;7.40;99.90;;;;;;5090854;28;20039;-57
2023/04/09 08:32:27;;;;;;;51.03;19.63;;;7.40;99.90;;;;;;5094822;28;20054;-57
2023/04/09 08:34:55;;;;;;;46.10;19.30;;;7.40;99.90;;;;;;5110608;28;20052;-56
2023/04/09 08:37:22;;;;;;;42.45;17.50;;;7.50;99.90;;;;;;5111368;28;20129;-54
2023/04/09 08:39:50;;;;;;;45.60;17.77;;;7.50;99.90;;;;;;5111377;28;20051;-55
2023/04/09 08:42:19;;;;;;;48.60;18.35;;;7.60;99.90;;;;;;5091737;28;20052;-55
2023/04/09 08:44:47;;;;;;;41.50;16.92;;;7.60;99.90;;;;;;5108373;28;20044;-58
2023/04/09 08:47:15;;;;;;;40.35;17.27;;;7.70;99.90;;;;;;5103182;28;20043;-56
2023/04/09 08:49:43;;;;;;;43.95;17.55;;;;;;;;;;5110478;28;20051;-56
2023/04/09 08:52:10;;;;;;;42.53;16.30;;;7.80;99.90;;;;;;5095136;28;20044;-57
2023/04/09 08:54:38;;;;;;;41.50;17.98;;;7.90;99.90;;;;;;5110859;28;20047;-57
2023/04/09 08:57:06;;;;;;;42.83;17.02;;;8.00;99.90;;;;;;5110153;28;20050;-55
2023/04/09 08:59:35;;;;;;;45.03;17.45;;;8.10;99.90;;;;;;5110577;28;20039;-56
2023/04/09 09:02:10;;;;;;;44.63;17.52;;;8.20;99.90;;;;;;5110574;28;20402;-55
2023/04/09 09:04:45;;;;;;;46.05;18.58;;;8.30;99.90;;;;;;5110008;28;20047;-56
2023/04/09 09:07:14;;;;;;;42.92;17.60;;;8.50;99.90;;;;;;5110471;28;20048;-56
2023/04/09 09:10:08;;;;;;;44.17;17.80;;;8.60;99.90;;;;;;5109792;28;20629;-56
2023/04/09 09:12:40;;;;;;;36.72;15.13;;;8.70;99.90;;;;;;5071943;28;20056;-57
2023/04/09 09:15:27;;;;;;;35.88;14.57;;;8.70;99.90;;;;;;5110685;28;20510;-56
2023/04/09 09:17:59;;;;;;;41.53;16.83;;;8.70;99.90;;;;;;5110175;28;20048;-55
2023/04/09 09:20:27;;;;;;;38.45;15.82;;;8.70;99.90;;;;;;5109888;28;20052;-54
2023/04/09 09:22:55;;;;;;;42.22;17.20;;;8.80;99.90;;;;;;5084316;28;20054;-54
2023/04/09 09:25:24;;;;;;;37.63;16.80;;;9.00;99.90;;;;;;5108900;28;20051;-55
2023/04/09 09:27:53;;;;;;;37.63;15.65;;;9.00;99.90;;;;;;5102756;28;20051;-55
2023/04/09 09:30:26;;;;;;;36.97;16.60;;;9.10;99.90;;;;;;5089704;28;20052;-56
2023/04/09 09:33:03;;;;;;;29.20;12.98;;;9.20;99.90;;;;;;5096805;28;20544;-55
2023/04/09 09:35:49;;;;;;;37.33;16.40;;;9.40;99.90;;;;;;5109426;28;20063;-56
2023/04/09 09:38:17;;;;;;;37.63;15.98;;;9.40;99.90;;;;;;5109573;28;20055;-57
2023/04/09 09:40:45;;;;;;;32.50;15.80;;;9.40;99.90;;;;;;5091836;28;20050;-56
2023/04/09 09:43:14;;;;;;;33.17;16.33;;;9.40;99.90;;;;;;5106060;28;20036;-57
2023/04/09 09:45:42;;;;;;;33.38;15.02;;;9.50;99.90;;;;;;5089214;28;20055;-56
2023/04/09 09:48:11;;;;;;;34.70;15.98;;;9.60;99.90;;;;;;5080675;28;20043;-56
2023/04/09 09:50:43;;;;;;;39.20;15.55;;;9.70;99.90;;;;;;5109255;28;20043;-57
2023/04/09 09:53:11;;;;;;;33.78;16.27;;;9.90;99.90;;;;;;5102409;28;20039;-56
2023/04/09 09:55:43;;;;;;;36.33;16.67;;;10.00;99.90;;;;;;5109695;28;20051;-58
2023/04/09 09:58:29;;;;;;;36.05;16.98;;;10.10;99.90;;;;;;5090891;28;20051;-57
2023/04/09 10:00:59;;;;;;;34.50;14.50;;;10.30;99.90;;;;;;5099500;28;20056;-56
2023/04/09 10:03:30;;;;;;;34.20;16.23;;;10.30;99.90;;;;;;5101184;28;20044;-57
2023/04/09 10:06:01;;;;;;;27.90;14.48;;;10.60;99.90;;;;;;5109048;28;20043;-57
2023/04/09 10:08:32;;;;;;;31.80;15.07;;;10.60;99.90;;;;;;5109048;28;20478;-55
2023/04/09 10:11:01;;;;;;;29.80;14.57;;;10.70;99.90;;;;;;5109294;28;20044;-56
2023/04/09 10:13:37;;;;;;;33.30;15.02;;;10.80;99.90;;;;;;5108904;28;20043;-56
2023/04/09 10:16:07;;;;;;;33.17;15.60;;;10.80;99.90;;;;;;5105975;28;20044;-58
2023/04/09 10:18:35;;;;;;;31.42;15.77;;;10.80;99.90;;;;;;5108399;28;20048;-57
2023/04/09 10:21:16;;;;;;;31.30;14.55;;;10.80;99.90;;;;;;5108789;28;20383;-56
2023/04/09 10:23:47;;;;;;;31.83;14.27;;;10.70;99.90;;;;;;5107531;28;20055;-57
2023/04/09 10:26:16;;;;;;;28.02;12.65;;;10.70;99.90;;;;;;5108829;28;20055;-55
2023/04/09 10:28:44;;;;;;;30.50;14.43;;;10.80;99.90;;;;;;5104700;28;20044;-55
2023/04/09 10:31:13;;;;;;;26.23;12.88;;;10.90;99.90;;;;;;5108954;28;20061;-56
2023/04/09 10:33:43;;;;;;;30.27;13.50;;;11.10;99.90;;;;;;5108495;28;20395;-56
2023/04/09 10:36:11;;;;;;;29.48;13.85;;;11.10;99.90;;;;;;5108172;28;20066;-56
2023/04/09 10:38:44;;;;;;;30.85;14.27;;;11.20;99.90;;;;;;5090907;28;20200;-56
2023/04/09 10:41:21;;;;;;;26.42;13.18;;;11.30;99.90;;;;;;5090317;28;20389;-56
2023/04/09 10:43:49;;;;;;;27.80;13.88;;;11.30;99.90;;;;;;5105144;28;20039;-56
2023/04/09 10:46:33;;;;;;;28.60;13.75;;;11.30;99.90;;;;;;5091069;28;20414;-56
2023/04/09 10:49:19;;;;;;;28.30;13.68;;;11.40;99.90;;;;;;5108591;28;20414;-55
2023/04/09 10:52:00;;;;;;;28.20;13.02;;;11.50;99.90;;;;;;5108137;28;20044;-56
2023/04/09 10:54:34;;;;;;;25.55;13.25;;;11.50;99.90;;;;;;5108389;28;20048;-55
2023/04/09 10:57:08;;;;;;;26.95;13.23;;;11.70;99.90;;;;;;5108431;28;20498;-56
2023/04/09 10:59:55;;;;;;;33.20;13.27;;;11.70;99.90;;;;;;5088552;28;20082;-55
2023/04/09 11:02:39;;;;;;;30.60;14.52;;;11.80;99.90;;;;;;5088205;28;20040;-57
2023/04/09 11:05:24;;;;;;;29.85;13.00;;;11.90;99.90;;;;;;5105702;28;20055;-55
2023/04/09 11:08:02;;;;;;;25.98;12.90;;;11.90;99.90;;;;;;5104734;28;20601;-56
2023/04/09 11:10:30;;;;;;;27.77;14.20;;;12.00;99.90;;;;;;5107868;28;20055;-58
2023/04/09 11:12:59;;;;;;;26.02;13.52;;;12.00;99.90;;;;;;5107945;28;20054;-57
2023/04/09 11:15:27;;;;;;;25.73;13.75;;;12.00;99.90;;;;;;5108525;28;20051;-58
2023/04/09 11:17:56;;;;;;;27.73;13.48;;;12.00;99.90;;;;;;5108267;28;20054;-56
2023/04/09 11:20:25;;;;;;;22.38;13.63;;;12.10;99.90;;;;;;5107983;28;20048;-57
2023/04/09 11:22:54;;;;;;;29.90;13.90;;;12.10;99.90;;;;;;5104059;28;20044;-57
2023/04/09 11:25:25;;;;;;;29.58;14.77;;;12.40;99.90;;;;;;5106300;28;20048;-57
2023/04/09 11:27:53;;;;;;;25.08;14.38;;;12.40;99.90;;;;;;5107886;28;20498;-56
2023/04/09 11:30:21;;;;;;;27.98;13.38;;;12.60;99.90;;;;;;5108505;28;20058;-56
2023/04/09 11:32:49;;;;;;;30.67;15.38;;;12.80;99.90;;;;;;5107423;28;20494;-58
2023/04/09 11:35:20;;;;;;;24.42;13.85;;;12.90;99.90;;;;;;5108168;28;20479;-58
2023/04/09 11:37:49;;;;;;;24.25;13.50;;;12.90;99.90;;;;;;5107320;28;20055;-56
2023/04/09 11:40:25;;;;;;;24.75;12.90;;;13.00;99.90;;;;;;5108412;28;20047;-55
2023/04/09 11:42:54;;;;;;;22.08;11.63;;;13.20;99.90;;;;;;5107804;28;20043;-56
2023/04/09 11:45:25;;;;;;;24.45;13.65;;;13.40;99.90;;;;;;5108157;28;20051;-57
2023/04/09 11:47:53;;;;;;;23.50;13.52;;;13.70;99.90;;;;;;5107878;28;20043;-57
2023/04/09 11:50:21;;;;;;;30.52;13.90;;;14.10;99.90;;;;;;5106913;28;20055;-55
2023/04/09 11:52:49;;;;;;;28.02;14.75;;;14.10;99.90;;;;;;5107267;28;20039;-57
2023/04/09 11:55:28;;;;;;;24.63;13.18;;;14.20;99.90;;;;;;5092109;28;20051;-56
2023/04/09 11:57:59;;;;;;;24.33;12.88;;;14.50;99.90;;;;;;5094140;28;20059;-59
2023/04/09 12:00:28;;;;;;;24.77;12.13;;;14.60;99.90;;;;;;5108095;28;20047;-56
2023/04/09 12:03:02;;;;;;;25.10;13.20;;;14.80;99.90;;;;;;5107709;28;20043;-56
2023/04/09 12:05:32;;;;;;;24.20;12.52;;;15.00;99.90;;;;;;5108025;28;20040;-58
2023/04/09 12:08:09;;;;;;;21.48;11.15;;;15.30;99.90;;;;;;5077292;28;20048;-56
2023/04/09 12:10:37;;;;;;;22.50;13.60;;;15.40;99.90;;;;;;5106194;28;20391;-57
2023/04/09 12:13:09;;;;;;;23.25;12.23;;;15.70;99.90;;;;;;5107382;28;20044;-57
2023/04/09 12:15:40;;;;;;;22.40;11.93;;;15.70;99.90;;;;;;5104702;28;20534;-56
2023/04/09 12:18:09;;;;;;;20.42;12.73;;;15.90;99.90;;;;;;5107539;28;20046;-57
2023/04/09 12:20:38;;;;;;;21.43;12.10;;;16.20;99.90;;;;;;5108439;28;20050;-57
2023/04/09 12:23:07;;;;;;;22.17;12.45;;;16.20;99.90;;;;;;5110792;28;20394;-57
2023/04/09 12:25:36;;;;;;;24.50;11.48;;;16.30;99.90;;;;;;5111426;28;20044;-56
2023/04/09 12:28:05;;;;;;;21.20;10.70;;;16.20;99.90;;;;;;5101610;28;20054;-57
2023/04/09 12:30:34;;;;;;;22.47;10.30;;;16.10;99.90;;;;;;5111339;28;20048;-56
2023/04/09 12:33:02;;;;;;;20.70;12.43;;;16.00;99.90;;;;;;5111290;28;20491;-56
2023/04/09 12:35:30;;;;;;;26.85;13.70;;;15.80;99.90;;;;;;5111243;28;20056;-57
2023/04/09 12:37:58;;;;;;;19.40;12.15;;;15.80;99.90;;;;;;5082473;28;20051;-57
2023/04/09 12:40:29;;;;;;;22.45;11.77;;;15.70;99.90;;;;;;5111143;28;20040;-56
2023/04/09 12:42:57;;;;;;;16.92;9.10;;;15.90;99.90;;;;;;5110709;28;20048;-58
2023/04/09 12:45:24;;;;;;;21.15;11.00;;;16.00;99.90;;;;;;5109419;28;20044;-57
2023/04/09 12:47:52;;;;;;;22.70;10.85;;;16.10;99.90;;;;;;5106009;28;20526;-57
2023/04/09 12:50:19;;;;;;;20.27;11.13;;;16.10;99.90;;;;;;5110856;28;20047;-56
2023/04/09 12:52:47;;;;;;;19.92;10.73;;;16.20;99.90;;;;;;5109988;28;20043;-59
2023/04/09 12:55:15;;;;;;;16.40;9.30;;;16.50;99.90;;;;;;5111066;28;20051;-58
2023/04/09 12:57:45;;;;;;;18.48;10.18;;;16.60;99.90;;;;;;5110431;28;20047;-57